Time;durP1;ratioP1;P1;durP2;ratioP2;P2;SDS_P1;SDS_P2;PMS_P1;PMS_P2;Temp;Humidity;BMP_temperature;BMP_pressure;BME280_temperature;BME280_humidity;BME280_pressure;Samples;Min_cycle;Max_cycle;Signal;HPM_P1;HPM_P2
2022/02/07 00:00:40;;;;;;;31.02;12.50;;;;;;;;;;5032019;28;20073;-37
2022/02/07 00:03:56;;;;;;;25.38;11.60;;;;;;;;;;5031888;28;20041;-37
2022/02/07 00:05:51;;;;;;;26.25;12.77;;;;;;;;;;5030998;28;20479;-37
2022/02/07 00:08:17;;;;;;;30.27;12.48;;;;;;;;;;5031581;28;20037;-38
2022/02/07 00:10:43;;;;;;;32.70;11.98;;;;;;;;;;5031466;28;20033;-37
2022/02/07 00:13:08;;;;;;;36.88;12.70;;;;;;;;;;5031450;28;20375;-37
2022/02/07 00:15:37;;;;;;;33.85;12.55;;;;;;;;;;5031498;28;20152;-37
2022/02/07 00:18:03;;;;;;;30.80;11.52;;;;;;;;;;5031348;28;20029;-37
2022/02/07 00:20:28;;;;;;;27.30;11.60;;;;;;;;;;5031753;28;20034;-37
2022/02/07 00:22:54;;;;;;;28.42;11.45;;;;;;;;;;5031668;28;20380;-37
2022/02/07 00:25:20;;;;;;;29.27;11.75;;;;;;;;;;5029933;28;20032;-37
2022/02/07 00:27:45;;;;;;;38.10;14.18;;;;;;;;;;5031465;28;20431;-37
2022/02/07 00:30:12;;;;;;;28.10;10.85;;;;;;;;;;5031201;28;20037;-37
2022/02/07 00:32:38;;;;;;;23.90;10.73;;;;;;;;;;5029968;28;20116;-37
2022/02/07 00:35:04;;;;;;;28.80;11.93;;;;;;;;;;5029847;28;20454;-37
2022/02/07 00:37:31;;;;;;;26.42;12.05;;;;;;;;;;5031349;28;20033;-37
2022/02/07 00:40:32;;;;;;;20.00;10.05;;;;;;;;;;5031320;28;20021;-37
2022/02/07 00:42:56;;;;;;;18.27;9.23;;;;;;;;;;5030948;28;20107;-37
2022/02/07 00:45:38;;;;;;;15.93;8.80;;;;;;;;;;5029974;28;20037;-37
2022/02/07 00:48:05;;;;;;;18.27;9.73;;;;;;;;;;5029867;28;20085;-37
2022/02/07 00:50:36;;;;;;;26.50;10.52;;;;;;;;;;5029846;28;20736;-37
2022/02/07 00:53:02;;;;;;;22.55;10.93;;;;;;;;;;5031349;28;20068;-37
2022/02/07 00:55:28;;;;;;;15.50;9.30;;;;;;;;;;5031099;28;20052;-37
2022/02/07 00:57:53;;;;;;;22.13;10.07;;;;;;;;;;5029835;28;20502;-37
2022/02/07 01:00:19;;;;;;;13.88;7.70;;;;;;;;;;5029665;28;20017;-38
2022/02/07 01:02:46;;;;;;;18.50;8.77;;;;;;;;;;5031066;28;20028;-38
2022/02/07 01:05:12;;;;;;;23.98;11.55;;;;;;;;;;5029632;28;20024;-37
2022/02/07 01:07:41;;;;;;;22.15;10.55;;;;;;;;;;5029596;28;20445;-37
2022/02/07 01:10:08;;;;;;;26.02;13.00;;;;;;;;;;5029628;28;20018;-37
2022/02/07 01:18:35;;;;;;;22.48;10.48;;;;;;;;;;5029643;28;20026;-37
2022/02/07 01:50:51;;;;;;;36.88;11.07;;;;;;;;;;5032692;28;20017;-38
2022/02/07 01:53:43;;;;;;;22.30;10.43;;;;;;;;;;5032731;28;20034;-37
2022/02/07 01:56:10;;;;;;;23.48;10.13;;;;;;;;;;5032751;28;20124;-37
2022/02/07 01:58:40;;;;;;;33.03;11.82;;;;;;;;;;5032662;28;20017;-37
2022/02/07 02:01:06;;;;;;;29.88;10.63;;;;;;;;;;5032970;28;20434;-37
2022/02/07 02:03:32;;;;;;;24.90;11.38;;;;;;;;;;5032606;28;20029;-37
2022/02/07 02:06:01;;;;;;;23.27;13.18;;;;;;;;;;5034175;28;20079;-37
2022/02/07 02:08:51;;;;;;;30.08;12.35;;;;;;;;;;5035969;28;20033;-37
2022/02/07 02:11:17;;;;;;;24.45;10.35;;;;;;;;;;5032365;28;20037;-37
2022/02/07 02:14:00;;;;;;;23.17;9.45;;;;;;;;;;5033799;28;20018;-37
2022/02/07 02:16:43;;;;;;;20.70;9.55;;;;;;;;;;5032523;28;20443;-37
2022/02/07 02:33:49;;;;;;;22.83;8.95;;;;;;;;;;5032151;28;20045;-37
2022/02/07 02:36:14;;;;;;;23.77;9.60;;;;;;;;;;5031578;28;20029;-37
2022/02/07 02:46:38;;;;;;;28.30;11.05;;;;;;;;;;5032432;28;20038;-37
2022/02/07 02:49:04;;;;;;;21.20;8.18;;;;;;;;;;5032408;28;20025;-37
2022/02/07 02:51:32;;;;;;;25.25;10.43;;;;;;;;;;5032168;28;20132;-37
2022/02/07 02:53:57;;;;;;;24.65;10.02;;;;;;;;;;5033818;28;20432;-37
2022/02/07 02:56:23;;;;;;;25.77;10.38;;;;;;;;;;5032073;28;20030;-37
2022/02/07 02:58:51;;;;;;;21.05;10.77;;;;;;;;;;5032251;28;20025;-37
2022/02/07 03:01:18;;;;;;;28.38;12.27;;;;;;;;;;5032017;28;20061;-37
2022/02/07 03:03:52;;;;;;;24.00;9.77;;;;;;;;;;5032059;28;20525;-37
2022/02/07 03:06:18;;;;;;;23.90;10.38;;;;;;;;;;5031917;28;20030;-37
2022/02/07 03:08:43;;;;;;;22.83;10.13;;;;;;;;;;5033426;28;20025;-37
2022/02/07 03:13:48;;;;;;;20.20;9.07;;;;;;;;;;5033370;28;20048;-37
2022/02/07 03:16:39;;;;;;;21.05;8.95;;;;;;;;;;5031733;28;20029;-37
2022/02/07 03:19:11;;;;;;;15.00;7.18;;;;;;;;;;5031710;28;20488;-37
2022/02/07 03:21:37;;;;;;;17.75;9.85;;;;;;;;;;5031700;28;20029;-37
2022/02/07 03:24:03;;;;;;;16.30;8.82;;;;;;;;;;5032936;28;20399;-37
2022/02/07 03:26:35;;;;;;;18.13;10.32;;;;;;;;;;5031648;28;20053;-37
2022/02/07 03:29:03;;;;;;;14.82;8.02;;;;;;;;;;5031582;28;20028;-37
2022/02/07 03:31:29;;;;;;;17.45;8.68;;;;;;;;;;5031412;28;20037;-37
2022/02/07 03:33:57;;;;;;;17.45;10.93;;;;;;;;;;5031516;28;20530;-37
2022/02/07 03:36:24;;;;;;;16.98;9.77;;;;;;;;;;5032587;28;20029;-37
2022/02/07 03:38:50;;;;;;;14.70;9.40;;;;;;;;;;5032900;28;20112;-37
2022/02/07 03:41:16;;;;;;;18.27;9.13;;;;;;;;;;5031176;28;20037;-37
2022/02/07 03:43:43;;;;;;;26.20;11.25;;;;;;;;;;5031282;28;20072;-37
2022/02/07 03:46:08;;;;;;;25.17;11.38;;;;;;;;;;5031110;28;20064;-37
2022/02/07 03:48:34;;;;;;;22.83;10.02;;;;;;;;;;5032552;28;20438;-37
2022/02/07 03:51:00;;;;;;;16.77;10.38;;;;;;;;;;5031048;28;20036;-37
2022/02/07 03:53:26;;;;;;;22.73;11.90;;;;;;;;;;5030748;28;20060;-37
2022/02/07 03:55:59;;;;;;;32.72;14.48;;;;;;;;;;5031068;28;20059;-37
2022/02/07 03:58:26;;;;;;;28.33;13.55;;;;;;;;;;5030927;28;20026;-37
2022/02/07 04:00:54;;;;;;;21.45;11.40;;;;;;;;;;5031135;28;20520;-37
2022/02/07 04:03:33;;;;;;;21.85;11.10;;;;;;;;;;5030937;28;20037;-37
2022/02/07 04:06:05;;;;;;;19.73;11.82;;;;;;;;;;5030818;28;20518;-37
2022/02/07 04:08:36;;;;;;;30.38;14.15;;;;;;;;;;5030760;28;20040;-38
2022/02/07 04:11:18;;;;;;;27.35;11.63;;;;;;;;;;5030816;28;20441;-37
2022/02/07 04:13:51;;;;;;;17.45;10.02;;;;;;;;;;5032376;28;20033;-37
2022/02/07 04:16:18;;;;;;;23.38;12.30;;;;;;;;;;5031912;28;20033;-37
2022/02/07 04:19:05;;;;;;;17.45;10.50;;;;;;;;;;5030718;28;20076;-37
2022/02/07 04:21:37;;;;;;;18.73;9.57;;;;;;;;;;5030777;28;20065;-37
2022/02/07 04:24:04;;;;;;;19.83;10.95;;;;;;;;;;5030707;28;20029;-37
2022/02/07 04:26:37;;;;;;;21.23;10.10;;;;;;;;;;5031859;28;20014;-37
2022/02/07 04:29:04;;;;;;;18.55;10.57;;;;;;;;;;5031888;28;20049;-38
2022/02/07 04:31:32;;;;;;;23.08;13.60;;;;;;;;;;5030611;28;20442;-38
2022/02/07 04:33:58;;;;;;;18.65;10.77;;;;;;;;;;5030518;28;20041;-37
2022/02/07 04:36:26;;;;;;;21.00;11.00;;;;;;;;;;5030374;28;20434;-37
2022/02/07 04:38:52;;;;;;;32.35;13.40;;;;;;;;;;5030624;28;20029;-38
2022/02/07 04:41:19;;;;;;;30.83;13.15;;;;;;;;;;5030101;28;20029;-38
2022/02/07 04:43:53;;;;;;;31.08;13.27;;;;;;;;;;5031826;28;20438;-37
2022/02/07 04:59:24;;;;;;;22.13;11.88;;;;;;;;;;5030301;28;20471;-37
2022/02/07 05:01:55;;;;;;;20.38;11.93;;;;;;;;;;5030228;28;20025;-37
2022/02/07 05:04:27;;;;;;;20.48;10.68;;;;;;;;;;5030224;28;20038;-38
2022/02/07 05:15:09;;;;;;;33.00;13.13;;;;;;;;;;5034053;28;20080;-38
2022/02/07 05:17:38;;;;;;;25.42;10.48;;;;;;;;;;5035394;28;20105;-37
2022/02/07 05:20:25;;;;;;;27.67;11.20;;;;;;;;;;5035577;28;20430;-37
2022/02/07 05:23:06;;;;;;;30.15;12.07;;;;;;;;;;5033908;28;20044;-37
2022/02/07 05:25:50;;;;;;;24.15;11.43;;;;;;;;;;5035179;28;20045;-37
2022/02/07 05:28:26;;;;;;;29.73;11.95;;;;;;;;;;5033823;28;20037;-37
2022/02/07 05:31:19;;;;;;;26.17;10.75;;;;;;;;;;5037044;28;20257;-37
2022/02/07 05:34:07;;;;;;;27.15;10.63;;;;;;;;;;5034565;28;20048;-37
2022/02/07 05:37:12;;;;;;;27.52;11.43;;;;;;;;;;5052447;28;20055;-37
2022/02/07 05:39:44;;;;;;;20.50;12.30;;;;;;;;;;5033516;28;20037;-37
2022/02/07 05:42:45;;;;;;;24.27;9.35;;;;;;;;;;5032484;28;20053;-41
2022/02/07 05:45:33;;;;;;;19.38;9.38;;;;;;;;;;5048777;28;20041;-37
2022/02/07 05:48:07;;;;;;;24.30;10.48;;;;;;;;;;5033533;28;20095;-37
2022/02/07 05:50:49;;;;;;;18.60;8.30;;;;;;;;;;5033411;28;20468;-37
2022/02/07 05:53:41;;;;;;;30.48;10.48;;;;;;;;;;5033817;28;20033;-37
2022/02/07 05:56:25;;;;;;;23.00;10.52;;;;;;;;;;5034570;28;20041;-38
2022/02/07 05:59:02;;;;;;;23.90;10.40;;;;;;;;;;5033281;28;20029;-37
2022/02/07 06:01:37;;;;;;;22.95;11.38;;;;;;;;;;5033273;28;20057;-37
2022/02/07 06:04:03;;;;;;;26.90;11.35;;;;;;;;;;5033208;28;20026;-37
2022/02/07 06:06:31;;;;;;;17.52;9.15;;;;;;;;;;5032974;28;20021;-37
2022/02/07 06:08:57;;;;;;;19.25;9.30;;;;;;;;;;5033190;28;20574;-37
2022/02/07 06:11:24;;;;;;;16.65;10.13;;;;;;;;;;5032971;28;20033;-37
2022/02/07 06:13:51;;;;;;;24.17;10.30;;;;;;;;;;5034295;28;20553;-37
2022/02/07 06:16:18;;;;;;;18.67;9.88;;;;;;;;;;5033680;28;20108;-37
2022/02/07 06:18:48;;;;;;;31.13;10.05;;;;;;;;;;5032938;28;20025;-37
2022/02/07 06:21:15;;;;;;;30.58;10.75;;;;;;;;;;5032793;28;20037;-37
2022/02/07 06:23:41;;;;;;;16.35;7.88;;;;;;;;;;5033286;28;20024;-37
2022/02/07 06:26:12;;;;;;;24.17;10.07;;;;;;;;;;5032714;28;20029;-37
2022/02/07 06:28:39;;;;;;;22.50;11.23;;;;;;;;;;5032813;28;20423;-37
2022/02/07 06:31:08;;;;;;;25.25;10.25;;;;;;;;;;5032645;28;20033;-37
2022/02/07 06:33:35;;;;;;;23.10;10.88;;;;;;;;;;5032639;28;20052;-37
2022/02/07 06:36:04;;;;;;;26.45;11.27;;;;;;;;;;5032570;28;20053;-38
2022/02/07 06:38:30;;;;;;;20.48;9.48;;;;;;;;;;5032550;28;20060;-37
2022/02/07 06:40:56;;;;;;;23.15;11.30;;;;;;;;;;5032620;28;20033;-37
2022/02/07 06:43:22;;;;;;;20.75;10.27;;;;;;;;;;5032194;28;20136;-38
2022/02/07 06:45:49;;;;;;;21.02;10.48;;;;;;;;;;5032458;28;20044;-37
2022/02/07 06:48:15;;;;;;;22.30;10.30;;;;;;;;;;5033781;28;20025;-37
2022/02/07 06:50:42;;;;;;;19.45;10.23;;;;;;;;;;5032553;28;20057;-37
2022/02/07 06:53:08;;;;;;;18.60;8.88;;;;;;;;;;5032324;28;20029;-37
2022/02/07 06:55:39;;;;;;;13.55;7.32;;;;;;;;;;5032137;28;20021;-37
2022/02/07 06:58:06;;;;;;;18.40;7.78;;;;;;;;;;5032276;28;20029;-37
2022/02/07 07:00:32;;;;;;;15.52;7.50;;;;;;;;;;5031997;28;20018;-37
2022/02/07 07:03:00;;;;;;;15.05;7.47;;;;;;;;;;5032048;28;20441;-37
2022/02/07 07:05:25;;;;;;;16.38;6.00;;;;;;;;;;5031943;28;20025;-37
2022/02/07 07:07:55;;;;;;;14.40;7.30;;;;;;;;;;5032058;28;20036;-38
2022/02/07 07:10:21;;;;;;;16.85;9.55;;;;;;;;;;5031865;28;20577;-37
2022/02/07 07:13:00;;;;;;;18.58;8.07;;;;;;;;;;5031833;28;20046;-37
2022/02/07 07:15:36;;;;;;;17.77;8.90;;;;;;;;;;5033149;28;20037;-37
2022/02/07 07:18:01;;;;;;;21.05;7.57;;;;;;;;;;5031840;28;20036;-37
2022/02/07 07:20:27;;;;;;;15.40;8.07;;;;;;;;;;5033392;28;20021;-37
2022/02/07 07:22:54;;;;;;;18.58;8.43;;;;;;;;;;5031712;28;20438;-37
2022/02/07 07:25:19;;;;;;;16.98;7.93;;;;;;;;;;5031474;28;20022;-37
2022/02/07 07:27:58;;;;;;;24.70;11.05;;;;;;;;;;5030774;28;20025;-37
2022/02/07 07:30:28;;;;;;;24.27;9.80;;;;;;;;;;5031552;28;20030;-38
2022/02/07 07:33:01;;;;;;;17.02;9.23;;;;;;;;;;5031442;28;20484;-37
2022/02/07 07:35:27;;;;;;;19.35;10.63;;;;;;;;;;5032916;28;20487;-37
2022/02/07 07:37:53;;;;;;;23.60;9.43;;;;;;;;;;5031748;28;20034;-37
2022/02/07 07:40:19;;;;;;;24.58;8.52;;;;;;;;;;5031329;28;20049;-37
2022/02/07 07:42:51;;;;;;;18.15;8.75;;;;;;;;;;5031239;28;20041;-37
2022/02/07 07:45:42;;;;;;;20.45;8.70;;;;;;;;;;5032870;28;20464;-37
2022/02/07 07:48:23;;;;;;;20.05;9.07;;;;;;;;;;5031190;28;20045;-38
2022/02/07 07:54:23;;;;;;;17.02;7.38;;;;;;;;;;5029790;28;20037;-37
2022/02/07 08:02:27;;;;;;;21.58;8.25;;;;;;;;;;5031021;28;20084;-37
2022/02/07 08:04:54;;;;;;;18.08;9.07;;;;;;;;;;5030904;28;20033;-37
2022/02/07 08:07:33;;;;;;;22.23;7.65;;;;;;;;;;5030892;28;20583;-37
2022/02/07 08:12:32;;;;;;;17.75;9.55;;;;;;;;;;5031055;28;20029;-37
2022/02/07 08:14:58;;;;;;;20.98;8.40;;;;;;;;;;5030691;28;20137;-37
2022/02/07 08:17:23;;;;;;;23.92;9.27;;;;;;;;;;5030902;28;20104;-37
2022/02/07 08:19:49;;;;;;;13.30;6.90;;;;;;;;;;5032330;28;20490;-37
2022/02/07 08:22:15;;;;;;;17.80;7.40;;;;;;;;;;5031965;28;20426;-37
2022/02/07 08:24:44;;;;;;;14.65;8.10;;;;;;;;;;5032232;28;20029;-37
2022/02/07 08:27:10;;;;;;;17.65;5.90;;;;;;;;;;5031877;28;20025;-37
2022/02/07 08:29:35;;;;;;;20.80;8.40;;;;;;;;;;5031837;28;20395;-37
2022/02/07 08:32:01;;;;;;;13.18;7.63;;;;;;;;;;5032098;28;20033;-38
2022/02/07 08:34:26;;;;;;;13.80;6.88;;;;;;;;;;5032069;28;20021;-37
2022/02/07 08:36:53;;;;;;;16.98;6.18;;;;;;;;;;5032131;28;20379;-37
2022/02/07 08:39:19;;;;;;;15.15;6.20;;;;;;;;;;5031545;28;20029;-37
2022/02/07 08:41:44;;;;;;;11.68;5.22;;;;;;;;;;5031786;28;20384;-37
2022/02/07 08:44:09;;;;;;;17.17;7.55;;;;;;;;;;5031892;28;20517;-37
2022/02/07 08:46:35;;;;;;;14.52;5.85;;;;;;;;;;5031704;28;20022;-37
2022/02/07 08:49:03;;;;;;;15.25;7.07;;;;;;;;;;5031711;28;20030;-37
2022/02/07 08:51:31;;;;;;;14.45;6.22;;;;;;;;;;5031766;28;20037;-37
2022/02/07 08:53:57;;;;;;;13.10;5.72;;;;;;;;;;5031618;28;20029;-37
2022/02/07 08:56:37;;;;;;;8.57;4.60;;;;;;;;;;5031478;28;20021;-37
2022/02/07 08:59:03;;;;;;;8.88;4.00;;;;;;;;;;5031668;28;20132;-37
2022/02/07 09:01:41;;;;;;;5.55;3.40;;;;;;;;;;5031484;28;20108;-37
2022/02/07 09:09:10;;;;;;;2.90;2.05;;;;;;;;;;5031563;28;20038;-37
2022/02/07 09:11:38;;;;;;;5.20;2.22;;;;;;;;;;5031330;28;20454;-37
2022/02/07 09:14:10;;;;;;;3.15;2.42;;;;;;;;;;5031460;28;20021;-38
2022/02/07 09:16:37;;;;;;;4.57;2.55;;;;;;;;;;5031678;28;20053;-37
2022/02/07 09:19:03;;;;;;;4.72;2.78;;;;;;;;;;5030468;28;20063;-37
2022/02/07 09:21:29;;;;;;;2.95;1.75;;;;;;;;;;5031351;28;20038;-37
2022/02/07 09:23:55;;;;;;;3.97;2.25;;;;;;;;;;5031374;28;20025;-37
2022/02/07 09:26:21;;;;;;;3.10;2.30;;;;;;;;;;5031144;28;20030;-37
2022/02/07 09:28:46;;;;;;;1.85;1.23;;;;;;;;;;5031421;28;20491;-37
2022/02/07 09:31:13;;;;;;;4.45;2.10;;;;;;;;;;5031071;28;20042;-37
2022/02/07 09:33:40;;;;;;;3.50;2.05;;;;;;;;;;5031301;28;20029;-37
2022/02/07 09:36:06;;;;;;;2.95;1.90;;;;;;;;;;5031222;28;20037;-37
2022/02/07 09:38:33;;;;;;;4.93;2.38;;;;;;;;;;5031132;28;20504;-37
2022/02/07 09:40:59;;;;;;;6.47;3.35;;;;;;;;;;5031311;28;20423;-37
2022/02/07 09:43:29;;;;;;;5.70;2.08;;;;;;;;;;5029972;28;20068;-37
2022/02/07 09:46:04;;;;;;;3.20;2.00;;;;;;;;;;5031393;28;20029;-37
2022/02/07 09:48:31;;;;;;;4.63;2.15;;;;;;;;;;5031365;28;20128;-37
2022/02/07 09:50:57;;;;;;;3.10;1.85;;;;;;;;;;5032080;28;20017;-37
2022/02/07 09:53:25;;;;;;;5.55;2.67;;;;;;;;;;5034561;28;20030;-37
2022/02/07 09:55:51;;;;;;;2.80;2.33;;;;;;;;;;5034641;28;20025;-37
2022/02/07 09:58:17;;;;;;;3.30;1.77;;;;;;;;;;5034606;28;20036;-38
2022/02/07 10:00:43;;;;;;;4.45;1.73;;;;;;;;;;5034548;28;20289;-37
2022/02/07 10:03:17;;;;;;;7.15;1.58;;;;;;;;;;5034569;28;20121;-37
2022/02/07 10:05:49;;;;;;;1.00;0.65;;;;;;;;;;5034461;28;20025;-38
2022/02/07 10:08:33;;;;;;;0.95;0.73;;;;;;;;;;5034401;28;20021;-37
2022/02/07 10:11:22;;;;;;;2.65;1.25;;;;;;;;;;5034351;28;20033;-37
2022/02/07 10:19:16;;;;;;;0.70;0.52;;;;;;;;;;5034234;28;20033;-37
2022/02/07 10:36:13;;;;;;;0.65;0.65;;;;;;;;;;5033935;28;20033;-37
2022/02/07 10:41:54;;;;;;;3.05;0.82;;;;;;;;;;5033537;28;20041;-37
2022/02/07 10:45:18;;;;;;;0.98;0.75;;;;;;;;;;5033590;28;20053;-37
2022/02/07 10:50:02;;;;;;;0.20;0.20;;;;;;;;;;5033706;28;20111;-37
2022/02/07 10:52:44;;;;;;;0.63;0.40;;;;;;;;;;5033436;28;20041;-37
2022/02/07 10:55:23;;;;;;;6.43;0.63;;;;;;;;;;5033659;28;20036;-37
2022/02/07 10:57:51;;;;;;;0.43;0.35;;;;;;;;;;5033527;28;20040;-37
2022/02/07 11:00:21;;;;;;;0.90;0.65;;;;;;;;;;5033448;28;20025;-38
2022/02/07 11:03:02;;;;;;;0.28;0.20;;;;;;;;;;5033459;28;20068;-37
2022/02/07 11:05:33;;;;;;;0.10;0.10;;;;;;;;;;5033595;28;20071;-38
2022/02/07 11:08:17;;;;;;;0.88;0.55;;;;;;;;;;5033670;28;20416;-37
2022/02/07 11:21:43;;;;;;;0.20;0.20;;;;;;;;;;5033084;28;20460;-37
2022/02/07 11:24:48;;;;;;;0.35;0.25;;;;;;;;;;5033322;28;20033;-37
2022/02/07 11:27:53;;;;;;;0.25;0.25;;;;;;;;;;5033092;28;20118;-37
2022/02/07 11:30:34;;;;;;;0.10;0.10;;;;;;;;;;5032900;28;20044;-37
2022/02/07 11:33:00;;;;;;;0.15;0.15;;;;;;;;;;5032718;28;20495;-37
2022/02/07 11:35:48;;;;;;;0.20;0.20;;;;;;;;;;5031770;28;20096;-37
2022/02/07 11:38:16;;;;;;;0.15;0.15;;;;;;;;;;5031657;28;20064;-37
2022/02/07 11:40:44;;;;;;;0.20;0.20;;;;;;;;;;5031742;28;20560;-38
2022/02/07 11:43:10;;;;;;;0.10;0.10;;;;;;;;;;5032511;28;20045;-37
2022/02/07 11:45:54;;;;;;;0.30;0.30;;;;;;;;;;5032587;28;20038;-38
2022/02/07 11:48:26;;;;;;;0.30;0.30;;;;;;;;;;5032679;28;20480;-37
2022/02/07 11:50:57;;;;;;;0.10;0.10;;;;;;;;;;5032469;28;20066;-37
2022/02/07 11:53:31;;;;;;;0.40;0.17;;;;;;;;;;5032451;28;20033;-37
2022/02/07 11:56:08;;;;;;;0.32;0.32;;;;;;;;;;5032360;28;20395;-37
2022/02/07 11:59:16;;;;;;;0.20;0.20;;;;;;;;;;5032301;28;20038;-37
2022/02/07 12:02:04;;;;;;;0.20;0.20;;;;;;;;;;5032211;28;20056;-37
2022/02/07 12:04:33;;;;;;;0.10;0.10;;;;;;;;;;5032156;28;20021;-38
2022/02/07 12:07:16;;;;;;;0.10;0.10;;;;;;;;;;5032618;28;20125;-37
2022/02/07 12:12:43;;;;;;;0.10;0.10;;;;;;;;;;5032368;28;20060;-37
2022/02/07 12:15:12;;;;;;;0.20;0.20;;;;;;;;;;5031648;28;20383;-37
2022/02/07 12:17:42;;;;;;;1.65;0.20;;;;;;;;;;5032154;28;20092;-37
2022/02/07 12:20:10;;;;;;;0.93;0.20;;;;;;;;;;5032057;28;20036;-37
2022/02/07 12:22:51;;;;;;;0.10;0.10;;;;;;;;;;5032231;28;20029;-37
2022/02/07 12:25:36;;;;;;;0.17;0.17;;;;;;;;;;5031909;28;20391;-38
2022/02/07 12:28:04;;;;;;;0.40;0.40;;;;;;;;;;5032013;28;20045;-37
2022/02/07 12:33:17;;;;;;;0.10;0.10;;;;;;;;;;4990057;28;20524;-37
2022/02/07 12:35:45;;;;;;;1.40;0.30;;;;;;;;;;5025042;28;20037;-38
2022/02/07 12:38:12;;;;;;;0.10;0.10;;;;;;;;;;5031796;28;20091;-37
2022/02/07 12:40:39;;;;;;;0.20;0.20;;;;;;;;;;5031786;28;20025;-38
2022/02/07 12:43:12;;;;;;;0.10;0.10;;;;;;;;;;5031691;28;20495;-37
2022/02/07 12:45:42;;;;;;;0.10;0.10;;;;;;;;;;5031618;28;20040;-38
2022/02/07 12:48:30;;;;;;;0.20;0.20;;;;;;;;;;5031784;28;20053;-37
2022/02/07 12:50:55;;;;;;;0.20;0.20;;;;;;;;;;5031455;28;20033;-37
2022/02/07 12:53:25;;;;;;;2.92;0.30;;;;;;;;;;5031811;28;20025;-37
2022/02/07 12:55:56;;;;;;;0.10;0.10;;;;;;;;;;5031605;28;20043;-37
2022/02/07 12:58:27;;;;;;;0.20;0.20;;;;;;;;;;5031555;28;20083;-37
2022/02/07 13:00:53;;;;;;;0.20;0.20;;;;;;;;;;5031905;28;20033;-37
2022/02/07 13:03:22;;;;;;;0.30;0.30;;;;;;;;;;5031559;28;20017;-37
2022/02/07 13:05:50;;;;;;;0.20;0.20;;;;;;;;;;5031417;28;20029;-37
2022/02/07 13:08:18;;;;;;;0.15;0.15;;;;;;;;;;5031794;28;20029;-38
2022/02/07 13:11:01;;;;;;;0.10;0.10;;;;;;;;;;5031545;28;20057;-37
2022/02/07 13:13:30;;;;;;;0.32;0.32;;;;;;;;;;5031479;28;20080;-37
2022/02/07 13:15:56;;;;;;;0.10;0.10;;;;;;;;;;5031408;28;20101;-37
2022/02/07 13:18:22;;;;;;;0.20;0.20;;;;;;;;;;5031430;28;20116;-37
2022/02/07 13:20:50;;;;;;;0.55;0.40;;;;;;;;;;5031362;28;20104;-37
2022/02/07 13:23:17;;;;;;;0.10;0.10;;;;;;;;;;5031725;28;20120;-37
2022/02/07 13:25:45;;;;;;;0.10;0.10;;;;;;;;;;5031739;28;20052;-37
2022/02/07 13:28:12;;;;;;;0.20;0.20;;;;;;;;;;5035145;28;20021;-37
2022/02/07 13:30:41;;;;;;;0.20;0.20;;;;;;;;;;5035437;28;20303;-37
2022/02/07 13:33:09;;;;;;;0.20;0.20;;;;;;;;;;5035067;28;20033;-37
2022/02/07 13:35:36;;;;;;;0.20;0.20;;;;;;;;;;5034938;28;20017;-37
2022/02/07 13:38:06;;;;;;;0.10;0.10;;;;;;;;;;5035048;28;20053;-37
2022/02/07 13:40:43;;;;;;;0.20;0.20;;;;;;;;;;5035202;28;20116;-37
2022/02/07 13:43:16;;;;;;;0.52;0.20;;;;;;;;;;5034848;28;20175;-37
2022/02/07 13:45:42;;;;;;;0.55;0.40;;;;;;;;;;5034834;28;20025;-37
2022/02/07 13:48:07;;;;;;;0.20;0.20;;;;;;;;;;5034973;28;20442;-37
2022/02/07 13:50:36;;;;;;;0.22;0.22;;;;;;;;;;5034676;28;20032;-37
2022/02/07 13:53:04;;;;;;;0.10;0.10;;;;;;;;;;5034723;28;20037;-37
2022/02/07 13:55:43;;;;;;;0.10;0.10;;;;;;;;;;5034493;28;20120;-37
2022/02/07 13:58:11;;;;;;;0.20;0.20;;;;;;;;;;5035081;28;20121;-37
2022/02/07 14:00:41;;;;;;;0.20;0.20;;;;;;;;;;5034593;28;20017;-37
2022/02/07 14:03:07;;;;;;;0.20;0.20;;;;;;;;;;5034587;28;20037;-37
2022/02/07 14:05:37;;;;;;;0.20;0.20;;;;;;;;;;5034455;28;20384;-37
2022/02/07 14:08:04;;;;;;;0.20;0.20;;;;;;;;;;5034812;28;20422;-37
2022/02/07 14:10:37;;;;;;;0.20;0.20;;;;;;;;;;5034194;28;20412;-37
2022/02/07 14:13:03;;;;;;;;;;;;;;;;;;5035042;28;20041;-37
2022/02/07 14:15:29;;;;;;;0.38;0.30;;;;;;;;;;5034311;28;20394;-37
2022/02/07 14:17:57;;;;;;;0.32;0.32;;;;;;;;;;5034277;28;20026;-37
2022/02/07 14:20:30;;;;;;;0.20;0.20;;;;;;;;;;5034143;28;20103;-37
2022/02/07 14:22:56;;;;;;;0.20;0.20;;;;;;;;;;5034274;28;20163;-37
2022/02/07 14:25:28;;;;;;;0.20;0.20;;;;;;;;;;5034268;28;20029;-37
2022/02/07 14:27:59;;;;;;;0.20;0.20;;;;;;;;;;5034193;28;20033;-38
2022/02/07 14:30:26;;;;;;;0.20;0.20;;;;;;;;;;5032774;28;20072;-37
2022/02/07 14:32:52;;;;;;;0.10;0.10;;;;;;;;;;5034045;28;20042;-37
2022/02/07 14:35:18;;;;;;;9.20;0.30;;;;;;;;;;5034225;28;20017;-37
2022/02/07 14:37:43;;;;;;;0.50;0.50;;;;;;;;;;5033547;28;20499;-37
2022/02/07 14:40:09;;;;;;;0.20;0.20;;;;;;;;;;5033934;28;20083;-37
2022/02/07 14:42:35;;;;;;;0.85;0.30;;;;;;;;;;5033632;28;20051;-37
2022/02/07 14:45:13;;;;;;;0.15;0.15;;;;;;;;;;5032491;28;20431;-37
2022/02/07 14:50:11;;;;;;;0.30;0.20;;;;;;;;;;5033766;28;20043;-37
2022/02/07 14:52:37;;;;;;;0.10;0.10;;;;;;;;;;5033709;28;20155;-37
2022/02/07 14:55:05;;;;;;;0.25;0.25;;;;;;;;;;5033693;28;20392;-37
2022/02/07 14:57:32;;;;;;;0.20;0.20;;;;;;;;;;5033565;28;20021;-37
2022/02/07 14:59:57;;;;;;;0.50;0.28;;;;;;;;;;5032260;28;20361;-38
2022/02/07 15:02:23;;;;;;;0.30;0.30;;;;;;;;;;5033463;28;20028;-37
2022/02/07 15:04:52;;;;;;;0.20;0.20;;;;;;;;;;5032144;28;20635;-37
2022/02/07 15:07:18;;;;;;;0.20;0.20;;;;;;;;;;5033375;28;20416;-37
2022/02/07 15:09:44;;;;;;;0.17;0.17;;;;;;;;;;5033310;28;20116;-38
2022/02/07 15:12:09;;;;;;;0.20;0.20;;;;;;;;;;5031924;28;20116;-37
2022/02/07 15:14:35;;;;;;;0.30;0.30;;;;;;;;;;5033163;28;20029;-37
2022/02/07 15:17:02;;;;;;;0.25;0.20;;;;;;;;;;5033447;28;20395;-37
2022/02/07 15:19:27;;;;;;;0.25;0.15;;;;;;;;;;5033434;28;20033;-37
2022/02/07 15:21:53;;;;;;;0.20;0.20;;;;;;;;;;5033073;28;20388;-38
2022/02/07 15:24:18;;;;;;;0.30;0.30;;;;;;;;;;5031860;28;20082;-37
2022/02/07 15:26:47;;;;;;;0.20;0.20;;;;;;;;;;5033028;28;20021;-37
2022/02/07 15:29:13;;;;;;;0.20;0.20;;;;;;;;;;5033197;28;20104;-37
2022/02/07 15:31:44;;;;;;;0.10;0.10;;;;;;;;;;5032845;28;20112;-37
2022/02/07 15:34:09;;;;;;;0.20;0.20;;;;;;;;;;5032929;28;20064;-37
2022/02/07 15:36:35;;;;;;;0.30;0.22;;;;;;;;;;5032800;28;20056;-37
2022/02/07 15:39:03;;;;;;;0.20;0.20;;;;;;;;;;5032876;28;20025;-37
2022/02/07 15:41:33;;;;;;;0.20;0.20;;;;;;;;;;5032493;28;20045;-37
2022/02/07 15:43:59;;;;;;;1.33;0.20;;;;;;;;;;5032652;28;20052;-38
2022/02/07 15:46:27;;;;;;;0.30;0.30;;;;;;;;;;5032569;28;20034;-37
2022/02/07 15:48:53;;;;;;;0.17;0.17;;;;;;;;;;5032250;28;20405;-37
2022/02/07 15:51:21;;;;;;;0.52;0.47;;;;;;;;;;5032450;28;20032;-37
2022/02/07 15:53:47;;;;;;;0.82;0.32;;;;;;;;;;5032795;28;20117;-37
2022/02/07 15:56:12;;;;;;;0.30;0.30;;;;;;;;;;5032489;28;20116;-37
2022/02/07 15:58:38;;;;;;;0.32;0.20;;;;;;;;;;5032417;28;20039;-37
2022/02/07 16:01:04;;;;;;;0.50;0.30;;;;;;;;;;5032735;28;20364;-38
2022/02/07 16:03:30;;;;;;;0.20;0.20;;;;;;;;;;5032173;28;20037;-38
2022/02/07 16:05:56;;;;;;;0.45;0.25;;;;;;;;;;5032638;28;20017;-37
2022/02/07 16:08:21;;;;;;;0.35;0.35;;;;;;;;;;5032555;28;20083;-37
2022/02/07 16:10:47;;;;;;;0.73;0.30;;;;;;;;;;5032278;28;20071;-37
2022/02/07 16:15:42;;;;;;;0.90;0.40;;;;;;;;;;5031988;28;20045;-38
2022/02/07 16:18:08;;;;;;;0.93;0.30;;;;;;;;;;5031167;28;20026;-37
2022/02/07 16:20:35;;;;;;;0.20;0.20;;;;;;;;;;5032348;28;20047;-37
2022/02/07 16:23:02;;;;;;;0.32;0.30;;;;;;;;;;5032372;28;20028;-37
2022/02/07 16:25:29;;;;;;;0.30;0.30;;;;;;;;;;5031837;28;20029;-37
2022/02/07 16:27:55;;;;;;;0.20;0.20;;;;;;;;;;5031992;28;20112;-37
2022/02/07 16:30:21;;;;;;;0.30;0.30;;;;;;;;;;5032207;28;20030;-37
2022/02/07 16:32:47;;;;;;;0.52;0.20;;;;;;;;;;5031864;28;20033;-37
2022/02/07 16:35:14;;;;;;;0.35;0.30;;;;;;;;;;5031845;28;20476;-37
2022/02/07 16:37:40;;;;;;;1.33;0.25;;;;;;;;;;5031839;28;20404;-37
2022/02/07 16:40:06;;;;;;;0.30;0.30;;;;;;;;;;5032086;28;20026;-37
2022/02/07 16:42:33;;;;;;;0.80;0.30;;;;;;;;;;5030337;28;20064;-37
2022/02/07 16:45:05;;;;;;;0.20;0.20;;;;;;;;;;5031859;28;20096;-38
2022/02/07 16:47:31;;;;;;;1.75;0.30;;;;;;;;;;5031631;28;20025;-37
2022/02/07 16:49:58;;;;;;;0.20;0.20;;;;;;;;;;5031772;28;20029;-37
2022/02/07 16:52:24;;;;;;;0.20;0.20;;;;;;;;;;5031531;28;20041;-37
2022/02/07 16:54:51;;;;;;;0.10;0.10;;;;;;;;;;5031613;28;20032;-37
2022/02/07 16:57:16;;;;;;;0.20;0.20;;;;;;;;;;5031744;28;20034;-37
2022/02/07 16:59:42;;;;;;;0.20;0.20;;;;;;;;;;5032117;28;20021;-37
2022/02/07 17:02:10;;;;;;;0.65;0.40;;;;;;;;;;5035708;28;20101;-37
2022/02/07 17:04:42;;;;;;;0.77;0.30;;;;;;;;;;5035596;28;20104;-37
2022/02/07 17:07:08;;;;;;;0.10;0.10;;;;;;;;;;5035883;28;20024;-37
2022/02/07 17:09:40;;;;;;;0.45;0.20;;;;;;;;;;5035470;28;20033;-37
2022/02/07 17:12:06;;;;;;;0.60;0.13;;;;;;;;;;5035779;28;20430;-37
2022/02/07 17:14:31;;;;;;;0.30;0.30;;;;;;;;;;5035378;28;20021;-37
2022/02/07 17:16:56;;;;;;;0.20;0.20;;;;;;;;;;5035497;28;20034;-37